Powell River Airport
CYPW : now visible

Airfield :











YOU CAN JOIN US ON...

 
LOGIN :

Register | Disclaimer

   EN    FR    IT 

 









Legend :    VFR   Marginal VFR   IFR   Intensive IFR   Very Intensive IFR
Visi :
Ceiling :
>= 8 km
>= 3000ft
5 to 8 km
1000 to 3000 ft
1500m to 5 km
500 to 1000 ft
800 to 1500m
200 to 500 ft
< 800m
< 200 ft
Symbols :   Thunderstorms  Fog  Heavy snow  Heavy precipitations  Wind > 20 kt






- Airport Elevation : 425 ft
- IATA code : YPW


CYPW - Powell River

CURRENT METAR :
  • 062300Z 28006KT 25SM FEW045 SCT250 10/02 A2997 RMK SC1CI4 SC TR SLP154

EXPIRED METARs :
  • 062200Z 28007KT 25SM FEW040 SCT250 10/03 A2996 RMK SC1CI4 SC TR CONTRAILS SLP152
  • 062100Z 27006KT 25SM FEW150 BKN300 09/03 A2996 RMK AC1CS6 AC TR HALO SLP151

TAF N/A



MET'MAP, your aeronautical weather chart ! - Copyright ORBIFLY December 2007 - Disclaimer

ORBIFLY MET'MAP TEAM :

Programming & Development : Alexandra Zaïnal
Concept & original design : Baudouin d'Aumeries
Assistance for programming : Marc-Olivier Méhu
Technical & hardware support : Manuel Goepfert

Contact : metmap@orbifly.com




SOURCES & CREDITS :

   NOAA       Earth
Advisory